Latest Weather Observations for Oodnadatta

IDS60801

Issued at 9:01 pm CST Thursday 25 August 2016 (issued every 30 minutes, with the page automatically refreshed every 10 minutes)

About weather observations | Map of weather stations | Latest weather observations for SA | Other Formats
Station Details ID: 017043 Name: OODNADATTA AIRPORT Lat: -27.56 Lon: 135.45 Height: 116.5 m
Data from the previous 72 hours. | See also: Recent months at Oodnadatta
Date/Time
CST
Temp
°C
App
Temp
°C
Dew
Point
°C
Rel
Hum
%
Delta-T
°C
Wind Press
QNH
hPa
Press
MSL
hPa
Rain since
9am
mm
Dir  Spd
km/h
Gust
km/h
Spd
kts
Gust
kts
25/09:00pm 10.0 6.3 4.6 69 2.4 SSE 13 15 7 8 1022.1 1022.0 1.4
25/08:30pm 10.4 6.3 4.1 65 2.8 S 15 20 8 11 1022.0 1021.9 1.4
25/08:00pm 11.2 7.1 4.2 62 3.2 SSW 15 17 8 9 1021.7 1021.6 1.4
25/07:30pm 12.2 7.6 3.9 57 3.7 SSW 17 24 9 13 1021.0 1020.9 1.4
25/07:00pm 12.5 7.9 3.7 55 4.0 SSW 17 20 9 11 1020.8 1020.7 1.4
25/06:30pm 13.4 7.8 3.2 50 4.6 SSW 22 30 12 16 1020.3 1020.2 1.4
25/06:00pm 14.4 7.8 2.0 43 5.5 SSW 26 33 14 18 1019.7 1019.6 1.4
25/05:30pm 15.0 9.6 1.5 40 5.9 SW 19 26 10 14 1019.1 1019.1 1.4
25/05:00pm 15.6 9.8 2.1 40 6.0 SSW 22 28 12 15 1018.8 1018.8 1.4
25/04:30pm 15.1 11.9 3.3 45 5.4 SSW 9 22 5 12 1018.6 1018.6 1.4
25/04:00pm 14.4 12.3 6.0 57 4.0 S 6 11 3 6 1018.4 1018.4 1.4
25/03:30pm 13.7 12.6 6.8 63 3.3 WSW 2 7 1 4 1018.4 1018.4 1.4
25/03:00pm 12.4 9.7 5.8 64 3.1 WSW 9 15 5 8 1018.6 1018.6 1.4
25/02:30pm 14.2 10.1 6.3 59 3.8 SSW 17 26 9 14 1018.6 1018.6 1.4
25/02:00pm 13.5 10.4 8.8 73 2.4 SSW 15 20 8 11 1018.8 1018.8 1.4
25/01:30pm 12.3 8.4 8.6 78 1.8 SSW 19 24 10 13 1019.2 1019.2 1.2
25/01:00pm 12.5 9.4 10.2 86 1.2 SSW 17 20 9 11 1019.5 1019.4 1.0
25/12:30pm 12.1 7.5 9.7 85 1.2 SSW 24 32 13 17 1019.8 1019.7 0.6
25/12:00pm 11.5 7.0 10.2 92 0.7 SSW 24 32 13 17 1019.9 1019.8 0.6
25/11:30am 13.4 8.1 8.5 72 2.5 SW 26 32 14 17 1020.1 1020.0 0.0
25/11:00am 14.6 8.9 6.9 60 3.8 SSW 26 35 14 19 1020.0 1019.9 0.0
25/10:30am 14.6 9.1 5.7 55 4.2 SSW 24 30 13 16 1020.0 1019.9 0.0
25/10:00am 14.8 10.1 6.1 56 4.2 S 20 26 11 14 1020.0 1019.9 0.0
25/09:30am 13.8 9.1 6.2 60 3.6 SSW 20 26 11 14 1020.0 1019.9 0.0
25/09:00am 13.3 9.9 5.9 61 3.5 S 13 17 7 9 1019.6 1019.5 0.0
25/08:30am 12.9 9.5 5.8 62 3.3 SSW 13 17 7 9 1019.3 1019.3 0.0
25/08:00am 12.5 8.7 5.7 63 3.2 SSW 15 20 8 11 1019.0 1019.0 0.0
25/07:30am 11.9 8.8 5.5 65 3.0 SSW 11 13 6 7 1018.3 1018.3 0.0
25/07:00am 11.6 8.4 5.3 65 2.9 SSW 11 13 6 7 1018.0 1018.0 0.0
25/06:30am 11.6 8.8 5.0 64 3.0 SSW 9 9 5 5 1017.7 1017.7 0.0
25/06:00am 11.7 8.8 4.4 61 3.3 SSW 9 11 5 6 1017.3 1017.3 0.0
25/05:30am 11.9 9.0 4.4 60 3.4 SW 9 13 5 7 1016.9 1016.9 0.0
25/05:00am 11.9 8.9 3.9 58 3.6 SSW 9 11 5 6 1016.7 1016.6 0.0
25/04:30am 12.1 9.1 3.9 57 3.7 SSW 9 11 5 6 1016.5 1016.4 0.0
25/04:00am 12.4 9.3 3.6 55 4.0 S 9 13 5 7 1016.5 1016.4 0.0
25/03:30am 12.5 9.4 3.7 55 4.0 S 9 11 5 6 1016.3 1016.2 0.0
25/03:00am 12.3 11.1 4.5 59 3.6 CALM 0 0 0 0 1016.5 1016.4 0.0
25/02:30am 12.8 10.7 3.7 54 4.1 SSW 4 7 2 4 1016.4 1016.3 0.0
25/02:00am 13.3 10.7 3.1 50 4.6 SSW 6 7 3 4 1016.5 1016.4 0.0
25/01:30am 13.4 10.5 2.6 48 4.8 SSW 7 9 4 5 1016.6 1016.5 0.0
25/01:00am 13.5 10.3 3.3 50 4.6 S 9 11 5 6 1016.8 1016.8 0.0
25/12:30am 13.5 10.9 4.4 54 4.2 WNW 7 11 4 6 1016.8 1016.8 0.0
25/12:00am 13.1 9.8 4.3 55 4.0 NW 11 13 6 7 1016.9 1016.9 0.0
 
Date/Time
CST
Temp
°C
App
Temp
°C
Dew
Point
°C
Rel
Hum
%
Delta-T
°C
Wind Press
QNH
hPa
Press
MSL
hPa
Rain since
9am
mm
Dir  Spd
km/h
Gust
km/h
Spd
kts
Gust
kts
24/11:30pm 13.5 11.8 3.8 52 4.4 W 2 9 1 5 1016.8 1016.8 0.0
24/11:00pm 13.1 10.4 3.7 53 4.3 NW 7 11 4 6 1017.0 1017.0 0.0
24/10:30pm 13.1 10.4 3.5 52 4.3 NW 7 9 4 5 1017.2 1017.2 0.0
24/10:00pm 14.0 10.9 3.5 49 4.8 NW 9 11 5 6 1016.9 1016.9 0.0
24/09:30pm 13.6 9.9 2.5 47 4.9 NW 11 13 6 7 1016.8 1016.8 0.0
24/09:00pm 14.3 11.0 2.5 45 5.2 NW 9 9 5 5 1016.7 1016.6 0.0
24/08:30pm 15.0 11.7 2.2 42 5.7 NW 9 9 5 5 1016.7 1016.6 0.0
24/08:00pm 15.6 12.3 2.4 41 5.9 W 9 11 5 6 1016.6 1016.5 0.0
24/07:30pm 16.9 15.1 1.0 34 7.0 CALM 0 0 0 0 1016.5 1016.4 0.0
24/07:00pm 17.3 14.4 1.7 35 7.0 SW 6 6 3 3 1016.3 1016.2 0.0
24/06:30pm 17.5 14.3 0.6 32 7.4 SW 7 9 4 5 1016.1 1016.0 0.0
24/06:00pm 18.6 14.9 0.2 29 8.1 WSW 9 13 5 7 1015.8 1015.7 0.0
24/05:30pm 19.4 14.1 -0.6 26 8.7 SW 17 24 9 13 1015.7 1015.6 0.0
24/05:00pm 20.1 14.9 0.0 26 8.9 SW 17 26 9 14 1015.6 1015.5 0.0
24/04:30pm 19.3 15.6 -0.1 27 8.5 WSW 9 19 5 10 1015.5 1015.4 0.0
24/04:00pm 19.7 14.1 -0.3 26 8.8 WSW 19 26 10 14 1015.3 1015.2 0.0
24/03:30pm 19.9 15.8 -0.1 26 8.9 SW 11 22 6 12 1015.3 1015.2 0.0
24/03:00pm 20.5 16.2 0.9 27 8.9 W 13 22 7 12 1015.4 1015.3 0.0
24/02:30pm 19.6 15.7 1.1 29 8.4 WSW 11 19 6 10 1015.6 1015.5 0.0
24/02:00pm 19.4 15.2 1.4 30 8.2 SSW 13 20 7 11 1015.8 1015.7 0.0
24/01:30pm 18.5 15.0 1.1 31 7.8 S 9 20 5 11 1016.2 1016.1 0.0
24/01:00pm 18.1 14.5 0.7 31 7.7 S 9 17 5 9 1016.6 1016.5 0.0
24/12:30pm 18.1 15.0 1.2 32 7.6 SSE 7 15 4 8 1017.0 1017.0 0.0
24/12:00pm 17.5 14.4 1.5 34 7.2 SSE 7 15 4 8 1017.2 1017.2 0.0
24/11:30am 17.3 14.4 2.5 37 6.8 SSW 7 17 4 9 1017.4 1017.4 0.0
24/11:00am 16.0 13.1 2.8 41 6.0 S 7 13 4 7 1017.6 1017.6 0.0
24/10:30am 14.8 12.3 3.6 47 5.1 SSW 6 13 3 7 1017.8 1017.8 0.0
24/10:00am 13.6 10.5 3.7 51 4.5 SSW 9 11 5 6 1018.1 1018.1 0.0
24/09:30am 12.0 9.2 3.3 55 3.9 SSW 7 11 4 6 1018.0 1018.0 0.0
24/09:00am 10.7 7.1 3.0 59 3.4 SW 11 13 6 7 1018.0 1018.0 0.0
24/08:30am 8.7 6.1 3.3 69 2.3 SSE 6 7 3 4 1017.8 1017.8 0.0
24/08:00am 6.7 4.5 3.3 79 1.4 ESE 4 7 2 4 1017.7 1017.7 0.0
24/07:30am 4.5 1.8 2.5 87 0.8 ESE 6 9 3 5 1017.3 1017.3 0.0
24/07:00am 3.7 2.0 1.9 88 0.7 CALM 0 0 0 0 1016.9 1016.9 0.0
24/06:30am 4.3 2.6 2.0 85 0.9 CALM 0 0 0 0 1016.6 1016.5 0.0
24/06:00am 5.7 4.0 2.0 77 1.5 CALM 0 0 0 0 1016.2 1016.1 0.0
24/05:30am 5.5 4.0 2.8 83 1.1 CALM 0 4 0 2 1015.9 1015.8 0.0
24/05:00am 4.9 2.0 2.4 84 1.0 ESE 7 9 4 5 1015.4 1015.3 0.0
24/04:30am 6.1 3.8 2.6 78 1.4 SSW 4 6 2 3 1015.2 1015.1 0.0
24/04:00am 6.1 3.4 2.9 80 1.3 SSW 6 9 3 5 1015.2 1015.1 0.0
24/03:30am 7.0 4.4 4.3 83 1.2 SSW 7 9 4 5 1015.1 1015.0 0.0
24/03:00am 7.3 4.8 4.6 83 1.2 SSW 7 9 4 5 1015.1 1015.0 0.0
24/02:30am 7.1 4.7 5.1 87 0.9 SSW 7 9 4 5 1015.0 1014.9 0.0
24/02:00am 7.3 5.0 5.8 90 0.7 SSW 7 7 4 4 1015.1 1015.0 0.0
24/01:30am 7.9 5.9 6.2 89 0.8 SSW 6 7 3 4 1015.1 1015.0 0.0
24/01:00am 8.2 6.3 6.5 89 0.8 SSW 6 7 3 4 1015.0 1014.9 0.0
24/12:30am 8.4 6.2 6.4 87 0.9 SSW 7 9 4 5 1015.1 1015.0 0.0
24/12:00am 8.9 6.1 6.9 87 0.9 SSW 11 13 6 7 1014.9 1014.8 0.0
 
Date/Time
CST
Temp
°C
App
Temp
°C
Dew
Point
°C
Rel
Hum
%
Delta-T
°C
Wind Press
QNH
hPa
Press
MSL
hPa
Rain since
9am
mm
Dir  Spd
km/h
Gust
km/h
Spd
kts
Gust
kts
23/11:30pm 9.2 6.8 7.0 86 1.0 S 9 11 5 6 1014.8 1014.7 0.0
23/11:00pm 10.0 8.1 7.4 84 1.2 S 7 9 4 5 1014.9 1014.8 0.0
23/10:30pm 10.2 7.9 7.4 83 1.3 S 9 9 5 5 1014.8 1014.7 0.0
23/10:00pm 10.2 7.5 7.4 83 1.3 S 11 13 6 7 1014.8 1014.7 0.0
23/09:30pm 11.0 9.1 7.5 79 1.7 SE 7 7 4 4 1014.7 1014.6 0.0
23/09:00pm 11.1 8.4 7.4 78 1.8 SE 11 11 6 6 1014.6 1014.5 0.0
23/08:30pm 11.2 8.0 6.9 75 2.1 SE 13 13 7 7 1014.3 1014.2 0.0
23/08:00pm 11.8 8.5 6.5 70 2.5 SE 13 15 7 8 1014.1 1014.0 0.0
23/07:30pm 12.5 8.9 5.0 60 3.5 ESE 13 15 7 8 1013.8 1013.7 0.0
23/07:00pm 14.1 10.3 4.1 51 4.6 SSE 13 15 7 8 1013.2 1013.1 0.0
23/06:30pm 15.3 11.0 3.1 44 5.6 SSE 15 19 8 10 1012.7 1012.6 0.0
23/06:00pm 16.2 11.6 3.6 43 5.8 SSE 17 22 9 12 1012.4 1012.3 0.0
23/05:30pm 16.6 12.1 4.3 44 5.8 SSE 17 24 9 13 1011.8 1011.7 0.0
23/05:00pm 16.8 11.8 4.8 45 5.7 S 20 26 11 14 1011.5 1011.4 0.0
23/04:30pm 16.8 11.9 5.1 46 5.6 SSE 20 24 11 13 1011.7 1011.6 0.0
23/04:00pm 16.9 11.4 5.8 48 5.4 S 24 28 13 15 1011.3 1011.2 0.0
23/03:30pm 17.3 13.3 4.9 44 6.0 S 15 26 8 14 1011.0 1010.9 0.0
23/03:00pm 17.2 12.8 4.9 44 5.9 SSE 17 28 9 15 1011.1 1011.0 0.0
23/02:30pm 17.4 13.7 4.7 43 6.1 SE 13 20 7 11 1011.0 1010.9 0.0
23/02:00pm 17.4 13.0 5.0 44 6.0 E 17 24 9 13 1011.2 1011.1 0.0
23/01:30pm 17.6 13.4 5.5 45 5.9 SE 17 22 9 12 1011.6 1011.5 0.0
23/01:00pm 16.9 12.7 5.8 48 5.4 SE 17 22 9 12 1012.2 1012.1 0.0
23/12:30pm 16.9 13.0 5.2 46 5.6 SE 15 24 8 13 1012.7 1012.6 0.0
23/12:00pm 16.5 14.0 6.6 52 4.9 SE 9 22 5 12 1013.4 1013.3 0.0
23/11:30am 15.6 12.8 7.1 57 4.2 SE 11 17 6 9 1013.8 1013.7 0.0
23/11:00am 15.2 12.3 8.2 63 3.5 E 13 19 7 10 1014.1 1014.0 0.0
23/10:30am 14.3 11.1 8.3 67 3.0 ESE 15 20 8 11 1014.3 1014.2 0.0
23/10:00am 13.4 10.5 8.0 70 2.7 E 13 17 7 9 1014.3 1014.2 0.0
23/09:30am 13.0 10.1 8.3 73 2.3 E 13 17 7 9 1014.0 1013.9 0.0
23/09:00am 12.3 9.5 8.4 77 1.9 ESE 13 15 7 8 1013.0 1012.9 0.2
23/08:30am 11.2 8.7 8.1 81 1.5 SE 11 15 6 8 1013.1 1013.0 0.2
23/08:00am 10.0 7.5 8.1 88 0.9 S 11 13 6 7 1012.7 1012.6 0.2
23/07:30am 9.6 7.0 7.9 89 0.8 S 11 13 6 7 1013.0 1012.9 0.2
23/07:00am 9.5 6.6 8.1 91 0.7 S 13 15 7 8 1012.7 1012.6 0.2
23/06:30am 9.2 6.3 8.0 92 0.6 S 13 13 7 7 1012.8 1012.7 0.2
23/06:00am 9.0 6.4 7.6 91 0.7 S 11 13 6 7 1012.7 1012.6 0.2
23/05:30am 9.1 6.0 7.4 89 0.8 SSE 13 15 7 8 1012.2 1012.1 0.2
23/05:00am 10.3 7.7 7.7 84 1.3 SSE 11 13 6 7 1012.3 1012.2 0.2
23/04:30am 10.6 8.5 8.2 85 1.2 SE 9 11 5 6 1012.1 1012.0 0.2
23/04:00am 11.7 9.9 8.0 78 1.8 SSE 7 11 4 6 1012.1 1012.0 0.2
23/03:30am 11.7 9.2 8.0 78 1.8 E 11 19 6 10 1012.3 1012.2 0.2
23/03:00am 11.9 9.4 8.0 77 1.9 ENE 11 22 6 12 1012.4 1012.3 0.2
23/02:30am 11.7 8.2 8.6 81 1.5 NNE 17 24 9 13 1013.0 1012.9 0.2
23/02:00am 11.0 10.2 8.1 82 1.4 NNE 2 11 1 6 1013.6 1013.5 0.2
23/01:30am 11.3 9.5 8.0 80 1.6 NNE 7 9 4 5 1013.5 1013.4 0.2
23/01:00am 10.7 8.1 7.9 83 1.4 E 11 13 6 7 1013.3 1013.2 0.2
23/12:30am 9.9 7.3 7.7 86 1.1 E 11 13 6 7 1012.6 1012.5 0.2
23/12:00am 9.5 7.8 7.4 87 1.0 SE 6 7 3 4 1013.3 1013.2 0.2
 
Date/Time
CST
Temp
°C
App
Temp
°C
Dew
Point
°C
Rel
Hum
%
Delta-T
°C
Wind Press
QNH
hPa
Press
MSL
hPa
Rain since
9am
mm
Dir  Spd
km/h
Gust
km/h
Spd
kts
Gust
kts
22/11:30pm 9.7 7.4 7.3 85 1.1 SE 9 9 5 5 1013.1 1013.0 0.2
22/11:00pm 9.7 6.9 7.1 84 1.2 SE 11 13 6 7 1013.1 1013.0 0.2
22/10:30pm 10.2 6.7 7.1 81 1.5 ESE 15 17 8 9 1013.1 1013.0 0.2
22/10:00pm 11.3 7.8 7.2 76 2.0 ESE 15 19 8 10 1013.4 1013.3 0.2
22/09:30pm 12.3 8.1 7.4 72 2.4 ESE 19 24 10 13 1013.3 1013.2 0.2

Other Formats:

Comma delimited format used in spreadsheet applications
http://www.bom.gov.au/fwo/IDS60801/IDS60801.94476.axf

JavaScript Object Notation format (JSON) in row-major order
http://www.bom.gov.au/fwo/IDS60801/IDS60801.94476.json